sensor_id;sensor_type;location;lat;lon;timestamp;P1;durP1;ratioP1;P2;durP2;ratioP2
40637;SDS011;26336;44.696;10.622;2023-02-05T00:01:52;117.57;;;67.40;;
40637;SDS011;26336;44.696;10.622;2023-02-05T00:04:56;100.47;;;65.67;;
40637;SDS011;26336;44.696;10.622;2023-02-05T00:08:00;103.60;;;68.07;;
40637;SDS011;26336;44.696;10.622;2023-02-05T00:11:04;107.47;;;69.43;;
40637;SDS011;26336;44.696;10.622;2023-02-05T00:14:14;106.30;;;70.40;;
40637;SDS011;26336;44.696;10.622;2023-02-05T00:17:18;104.37;;;68.23;;
40637;SDS011;26336;44.696;10.622;2023-02-05T00:20:22;107.80;;;67.60;;
40637;SDS011;26336;44.696;10.622;2023-02-05T00:23:26;101.93;;;65.63;;
40637;SDS011;26336;44.696;10.622;2023-02-05T00:26:30;103.60;;;65.93;;
40637;SDS011;26336;44.696;10.622;2023-02-05T00:29:33;108.37;;;68.87;;
40637;SDS011;26336;44.696;10.622;2023-02-05T00:32:37;147.77;;;74.97;;
40637;SDS011;26336;44.696;10.622;2023-02-05T00:35:42;112.57;;;71.33;;
40637;SDS011;26336;44.696;10.622;2023-02-05T00:38:47;135.67;;;74.93;;
40637;SDS011;26336;44.696;10.622;2023-02-05T00:41:52;133.23;;;75.57;;
40637;SDS011;26336;44.696;10.622;2023-02-05T00:44:56;137.30;;;78.47;;
40637;SDS011;26336;44.696;10.622;2023-02-05T00:48:02;136.37;;;75.77;;
40637;SDS011;26336;44.696;10.622;2023-02-05T00:51:08;121.77;;;73.83;;
40637;SDS011;26336;44.696;10.622;2023-02-05T00:54:12;133.27;;;75.13;;
40637;SDS011;26336;44.696;10.622;2023-02-05T00:57:16;125.67;;;71.93;;
40637;SDS011;26336;44.696;10.622;2023-02-05T01:00:20;120.57;;;73.60;;
40637;SDS011;26336;44.696;10.622;2023-02-05T01:03:24;143.73;;;81.10;;
40637;SDS011;26336;44.696;10.622;2023-02-05T01:06:29;139.97;;;77.20;;
40637;SDS011;26336;44.696;10.622;2023-02-05T01:09:33;128.70;;;73.43;;
40637;SDS011;26336;44.696;10.622;2023-02-05T01:12:37;134.67;;;76.07;;
40637;SDS011;26336;44.696;10.622;2023-02-05T01:15:41;127.40;;;72.87;;
40637;SDS011;26336;44.696;10.622;2023-02-05T01:18:45;134.27;;;70.77;;
40637;SDS011;26336;44.696;10.622;2023-02-05T01:21:49;134.20;;;72.33;;
40637;SDS011;26336;44.696;10.622;2023-02-05T01:24:53;124.07;;;72.83;;
40637;SDS011;26336;44.696;10.622;2023-02-05T01:27:57;132.40;;;73.60;;
40637;SDS011;26336;44.696;10.622;2023-02-05T01:31:01;137.40;;;71.60;;
40637;SDS011;26336;44.696;10.622;2023-02-05T01:34:07;135.73;;;71.40;;
40637;SDS011;26336;44.696;10.622;2023-02-05T01:37:11;124.07;;;69.67;;
40637;SDS011;26336;44.696;10.622;2023-02-05T01:40:15;124.17;;;70.60;;
40637;SDS011;26336;44.696;10.622;2023-02-05T01:43:20;125.33;;;70.83;;
40637;SDS011;26336;44.696;10.622;2023-02-05T01:46:28;121.93;;;66.27;;
40637;SDS011;26336;44.696;10.622;2023-02-05T01:49:40;131.27;;;69.70;;
40637;SDS011;26336;44.696;10.622;2023-02-05T01:52:45;135.07;;;69.23;;
40637;SDS011;26336;44.696;10.622;2023-02-05T01:55:57;173.10;;;70.70;;
40637;SDS011;26336;44.696;10.622;2023-02-05T01:59:09;133.37;;;70.40;;
40637;SDS011;26336;44.696;10.622;2023-02-05T02:02:19;143.73;;;73.13;;
40637;SDS011;26336;44.696;10.622;2023-02-05T02:05:23;140.37;;;72.63;;
40637;SDS011;26336;44.696;10.622;2023-02-05T02:08:27;135.13;;;73.73;;
40637;SDS011;26336;44.696;10.622;2023-02-05T02:11:34;156.03;;;74.20;;
40637;SDS011;26336;44.696;10.622;2023-02-05T02:14:41;137.53;;;71.17;;
40637;SDS011;26336;44.696;10.622;2023-02-05T02:17:50;137.73;;;67.73;;
40637;SDS011;26336;44.696;10.622;2023-02-05T02:24:33;129.87;;;66.50;;
40637;SDS011;26336;44.696;10.622;2023-02-05T02:28:11;162.90;;;67.87;;
40637;SDS011;26336;44.696;10.622;2023-02-05T02:31:26;123.17;;;67.17;;
40637;SDS011;26336;44.696;10.622;2023-02-05T02:34:38;120.53;;;67.43;;
40637;SDS011;26336;44.696;10.622;2023-02-05T02:37:53;151.27;;;69.47;;
40637;SDS011;26336;44.696;10.622;2023-02-05T02:41:24;146.73;;;69.33;;
40637;SDS011;26336;44.696;10.622;2023-02-05T02:47:52;136.03;;;70.43;;
40637;SDS011;26336;44.696;10.622;2023-02-05T02:51:00;121.70;;;67.20;;
40637;SDS011;26336;44.696;10.622;2023-02-05T02:54:06;132.83;;;69.27;;
40637;SDS011;26336;44.696;10.622;2023-02-05T02:57:16;178.23;;;71.93;;
40637;SDS011;26336;44.696;10.622;2023-02-05T03:00:24;132.70;;;69.03;;
40637;SDS011;26336;44.696;10.622;2023-02-05T03:03:30;140.83;;;72.87;;
40637;SDS011;26336;44.696;10.622;2023-02-05T03:06:38;128.47;;;69.50;;
40637;SDS011;26336;44.696;10.622;2023-02-05T03:09:50;123.17;;;67.63;;
40637;SDS011;26336;44.696;10.622;2023-02-05T03:13:02;135.67;;;69.17;;
40637;SDS011;26336;44.696;10.622;2023-02-05T03:16:07;130.07;;;68.87;;
40637;SDS011;26336;44.696;10.622;2023-02-05T03:19:11;135.63;;;68.20;;
40637;SDS011;26336;44.696;10.622;2023-02-05T03:22:16;130.47;;;67.20;;
40637;SDS011;26336;44.696;10.622;2023-02-05T03:25:20;138.77;;;69.23;;
40637;SDS011;26336;44.696;10.622;2023-02-05T03:28:29;160.83;;;69.57;;
40637;SDS011;26336;44.696;10.622;2023-02-05T03:35:09;130.80;;;66.27;;
40637;SDS011;26336;44.696;10.622;2023-02-05T03:42:16;136.83;;;66.33;;
40637;SDS011;26336;44.696;10.622;2023-02-05T03:49:21;151.30;;;65.33;;
40637;SDS011;26336;44.696;10.622;2023-02-05T03:52:56;132.23;;;65.70;;
40637;SDS011;26336;44.696;10.622;2023-02-05T03:56:33;124.17;;;65.53;;
40637;SDS011;26336;44.696;10.622;2023-02-05T03:59:39;131.43;;;67.63;;
40637;SDS011;26336;44.696;10.622;2023-02-05T04:02:45;159.17;;;63.93;;
40637;SDS011;26336;44.696;10.622;2023-02-05T04:05:54;190.33;;;68.37;;
40637;SDS011;26336;44.696;10.622;2023-02-05T04:08:58;143.67;;;65.93;;
40637;SDS011;26336;44.696;10.622;2023-02-05T04:12:02;146.07;;;71.30;;
40637;SDS011;26336;44.696;10.622;2023-02-05T04:15:07;166.17;;;69.37;;
40637;SDS011;26336;44.696;10.622;2023-02-05T04:18:14;145.80;;;70.20;;
40637;SDS011;26336;44.696;10.622;2023-02-05T04:21:22;133.70;;;70.27;;
40637;SDS011;26336;44.696;10.622;2023-02-05T04:24:26;148.57;;;65.83;;
40637;SDS011;26336;44.696;10.622;2023-02-05T04:27:30;143.00;;;68.27;;
40637;SDS011;26336;44.696;10.622;2023-02-05T04:30:37;142.80;;;67.30;;
40637;SDS011;26336;44.696;10.622;2023-02-05T04:33:43;149.67;;;68.77;;
40637;SDS011;26336;44.696;10.622;2023-02-05T04:36:49;136.50;;;67.30;;
40637;SDS011;26336;44.696;10.622;2023-02-05T04:39:56;179.27;;;66.53;;
40637;SDS011;26336;44.696;10.622;2023-02-05T04:43:00;132.23;;;65.03;;
40637;SDS011;26336;44.696;10.622;2023-02-05T04:46:07;132.70;;;65.53;;
40637;SDS011;26336;44.696;10.622;2023-02-05T04:49:12;143.53;;;68.13;;
40637;SDS011;26336;44.696;10.622;2023-02-05T04:52:16;115.97;;;64.43;;
40637;SDS011;26336;44.696;10.622;2023-02-05T04:55:20;133.37;;;65.30;;
40637;SDS011;26336;44.696;10.622;2023-02-05T04:58:24;139.00;;;67.73;;
40637;SDS011;26336;44.696;10.622;2023-02-05T05:01:28;123.00;;;64.03;;
40637;SDS011;26336;44.696;10.622;2023-02-05T05:04:32;120.00;;;63.40;;
40637;SDS011;26336;44.696;10.622;2023-02-05T05:07:36;131.33;;;67.20;;
40637;SDS011;26336;44.696;10.622;2023-02-05T05:10:40;151.93;;;68.30;;
40637;SDS011;26336;44.696;10.622;2023-02-05T05:13:44;124.07;;;68.27;;
40637;SDS011;26336;44.696;10.622;2023-02-05T05:16:49;128.27;;;66.03;;
40637;SDS011;26336;44.696;10.622;2023-02-05T05:19:53;140.03;;;69.87;;
40637;SDS011;26336;44.696;10.622;2023-02-05T05:22:57;126.83;;;66.50;;
40637;SDS011;26336;44.696;10.622;2023-02-05T05:26:03;142.70;;;67.07;;
40637;SDS011;26336;44.696;10.622;2023-02-05T05:29:09;130.37;;;65.97;;
40637;SDS011;26336;44.696;10.622;2023-02-05T05:32:13;122.27;;;66.40;;
40637;SDS011;26336;44.696;10.622;2023-02-05T05:35:17;138.37;;;66.03;;
40637;SDS011;26336;44.696;10.622;2023-02-05T05:38:21;140.97;;;67.73;;
40637;SDS011;26336;44.696;10.622;2023-02-05T05:41:25;124.40;;;64.60;;
40637;SDS011;26336;44.696;10.622;2023-02-05T05:44:47;116.80;;;63.80;;
40637;SDS011;26336;44.696;10.622;2023-02-05T05:47:54;129.67;;;63.77;;
40637;SDS011;26336;44.696;10.622;2023-02-05T05:50:58;122.63;;;61.63;;
40637;SDS011;26336;44.696;10.622;2023-02-05T05:54:02;128.37;;;65.17;;
40637;SDS011;26336;44.696;10.622;2023-02-05T05:57:06;126.70;;;61.67;;
40637;SDS011;26336;44.696;10.622;2023-02-05T06:00:11;127.87;;;63.80;;
40637;SDS011;26336;44.696;10.622;2023-02-05T06:03:18;120.50;;;61.80;;
40637;SDS011;26336;44.696;10.622;2023-02-05T06:06:24;126.67;;;62.93;;
40637;SDS011;26336;44.696;10.622;2023-02-05T06:09:28;109.67;;;57.20;;
40637;SDS011;26336;44.696;10.622;2023-02-05T06:12:32;121.97;;;60.97;;
40637;SDS011;26336;44.696;10.622;2023-02-05T06:15:36;122.53;;;62.67;;
40637;SDS011;26336;44.696;10.622;2023-02-05T06:18:40;115.63;;;57.83;;
40637;SDS011;26336;44.696;10.622;2023-02-05T06:21:44;118.93;;;64.10;;
40637;SDS011;26336;44.696;10.622;2023-02-05T06:24:50;126.47;;;61.43;;
40637;SDS011;26336;44.696;10.622;2023-02-05T06:27:53;134.30;;;61.70;;
40637;SDS011;26336;44.696;10.622;2023-02-05T06:30:57;131.73;;;62.97;;
40637;SDS011;26336;44.696;10.622;2023-02-05T06:34:02;120.90;;;63.00;;
40637;SDS011;26336;44.696;10.622;2023-02-05T06:37:05;123.93;;;61.43;;
40637;SDS011;26336;44.696;10.622;2023-02-05T06:40:09;128.77;;;64.67;;
40637;SDS011;26336;44.696;10.622;2023-02-05T06:43:14;129.47;;;62.97;;
40637;SDS011;26336;44.696;10.622;2023-02-05T06:46:18;131.73;;;61.83;;
40637;SDS011;26336;44.696;10.622;2023-02-05T06:49:22;130.80;;;64.13;;
40637;SDS011;26336;44.696;10.622;2023-02-05T06:52:26;125.33;;;62.93;;
40637;SDS011;26336;44.696;10.622;2023-02-05T06:55:30;126.93;;;65.17;;
40637;SDS011;26336;44.696;10.622;2023-02-05T06:58:37;130.13;;;65.00;;
40637;SDS011;26336;44.696;10.622;2023-02-05T07:01:41;132.07;;;64.87;;
40637;SDS011;26336;44.696;10.622;2023-02-05T07:04:45;136.87;;;64.10;;
40637;SDS011;26336;44.696;10.622;2023-02-05T07:07:52;134.57;;;65.17;;
40637;SDS011;26336;44.696;10.622;2023-02-05T07:10:56;127.50;;;66.10;;
40637;SDS011;26336;44.696;10.622;2023-02-05T07:14:00;129.17;;;65.00;;
40637;SDS011;26336;44.696;10.622;2023-02-05T07:17:04;134.07;;;63.50;;
40637;SDS011;26336;44.696;10.622;2023-02-05T07:20:09;122.87;;;62.07;;
40637;SDS011;26336;44.696;10.622;2023-02-05T07:23:14;124.60;;;61.33;;
40637;SDS011;26336;44.696;10.622;2023-02-05T07:26:18;119.70;;;59.47;;
40637;SDS011;26336;44.696;10.622;2023-02-05T07:29:22;125.67;;;59.83;;
40637;SDS011;26336;44.696;10.622;2023-02-05T07:32:26;118.13;;;59.87;;
40637;SDS011;26336;44.696;10.622;2023-02-05T07:35:31;115.93;;;57.40;;
40637;SDS011;26336;44.696;10.622;2023-02-05T07:38:37;108.90;;;56.03;;
40637;SDS011;26336;44.696;10.622;2023-02-05T07:41:41;114.83;;;57.03;;
40637;SDS011;26336;44.696;10.622;2023-02-05T07:44:51;110.03;;;55.97;;
40637;SDS011;26336;44.696;10.622;2023-02-05T07:47:56;103.80;;;52.00;;
40637;SDS011;26336;44.696;10.622;2023-02-05T07:50:59;111.93;;;53.47;;
40637;SDS011;26336;44.696;10.622;2023-02-05T07:54:07;106.97;;;53.03;;
40637;SDS011;26336;44.696;10.622;2023-02-05T07:57:12;101.63;;;52.47;;
40637;SDS011;26336;44.696;10.622;2023-02-05T08:00:16;105.33;;;52.97;;
40637;SDS011;26336;44.696;10.622;2023-02-05T08:03:20;100.83;;;50.40;;
40637;SDS011;26336;44.696;10.622;2023-02-05T08:06:24;87.13;;;45.97;;
40637;SDS011;26336;44.696;10.622;2023-02-05T08:09:28;83.77;;;42.93;;
40637;SDS011;26336;44.696;10.622;2023-02-05T08:12:32;86.97;;;43.47;;
40637;SDS011;26336;44.696;10.622;2023-02-05T08:15:39;90.30;;;44.87;;
40637;SDS011;26336;44.696;10.622;2023-02-05T08:18:47;94.43;;;46.80;;
40637;SDS011;26336;44.696;10.622;2023-02-05T08:21:52;92.80;;;45.70;;
40637;SDS011;26336;44.696;10.622;2023-02-05T08:24:56;87.20;;;44.37;;
40637;SDS011;26336;44.696;10.622;2023-02-05T08:28:00;86.87;;;45.43;;
40637;SDS011;26336;44.696;10.622;2023-02-05T08:31:08;83.93;;;41.57;;
40637;SDS011;26336;44.696;10.622;2023-02-05T08:34:20;81.73;;;41.83;;
40637;SDS011;26336;44.696;10.622;2023-02-05T08:37:25;79.97;;;42.93;;
40637;SDS011;26336;44.696;10.622;2023-02-05T08:40:30;84.67;;;43.17;;
40637;SDS011;26336;44.696;10.622;2023-02-05T08:43:34;85.47;;;44.87;;
40637;SDS011;26336;44.696;10.622;2023-02-05T08:46:47;80.47;;;40.97;;
40637;SDS011;26336;44.696;10.622;2023-02-05T08:49:51;79.17;;;42.50;;
40637;SDS011;26336;44.696;10.622;2023-02-05T08:52:55;70.87;;;41.13;;
40637;SDS011;26336;44.696;10.622;2023-02-05T08:56:00;63.27;;;36.27;;
40637;SDS011;26336;44.696;10.622;2023-02-05T08:59:08;64.50;;;33.53;;
40637;SDS011;26336;44.696;10.622;2023-02-05T09:02:14;61.60;;;35.20;;
40637;SDS011;26336;44.696;10.622;2023-02-05T09:05:21;66.07;;;36.03;;
40637;SDS011;26336;44.696;10.622;2023-02-05T09:08:25;59.87;;;30.60;;
40637;SDS011;26336;44.696;10.622;2023-02-05T09:11:30;56.93;;;31.53;;
40637;SDS011;26336;44.696;10.622;2023-02-05T09:14:33;53.43;;;29.83;;
40637;SDS011;26336;44.696;10.622;2023-02-05T09:17:40;53.87;;;29.70;;
40637;SDS011;26336;44.696;10.622;2023-02-05T09:20:48;58.30;;;31.53;;
40637;SDS011;26336;44.696;10.622;2023-02-05T09:23:53;57.27;;;31.87;;
40637;SDS011;26336;44.696;10.622;2023-02-05T09:26:56;58.03;;;29.63;;
40637;SDS011;26336;44.696;10.622;2023-02-05T09:30:01;52.07;;;29.20;;
40637;SDS011;26336;44.696;10.622;2023-02-05T09:33:05;52.97;;;30.53;;
40637;SDS011;26336;44.696;10.622;2023-02-05T09:39:19;67.83;;;34.20;;
40637;SDS011;26336;44.696;10.622;2023-02-05T09:42:34;63.93;;;33.40;;
40637;SDS011;26336;44.696;10.622;2023-02-05T09:52:28;65.55;;;33.25;;
40637;SDS011;26336;44.696;10.622;2023-02-05T09:55:39;88.77;;;47.00;;
40637;SDS011;26336;44.696;10.622;2023-02-05T09:58:47;78.83;;;43.67;;
40637;SDS011;26336;44.696;10.622;2023-02-05T10:02:45;75.47;;;43.35;;
40637;SDS011;26336;44.696;10.622;2023-02-05T10:15:39;90.57;;;46.43;;
40637;SDS011;26336;44.696;10.622;2023-02-05T10:19:05;94.87;;;47.93;;
40637;SDS011;26336;44.696;10.622;2023-02-05T10:26:29;85.20;;;45.90;;
40637;SDS011;26336;44.696;10.622;2023-02-05T10:33:21;85.70;;;47.40;;
40637;SDS011;26336;44.696;10.622;2023-02-05T10:37:07;92.20;;;50.07;;
40637;SDS011;26336;44.696;10.622;2023-02-05T10:40:15;84.03;;;45.60;;
40637;SDS011;26336;44.696;10.622;2023-02-05T10:46:36;87.03;;;45.57;;
40637;SDS011;26336;44.696;10.622;2023-02-05T10:49:54;81.47;;;43.03;;
40637;SDS011;26336;44.696;10.622;2023-02-05T10:53:17;83.03;;;45.37;;
40637;SDS011;26336;44.696;10.622;2023-02-05T10:56:23;87.47;;;46.20;;
40637;SDS011;26336;44.696;10.622;2023-02-05T10:59:31;90.50;;;48.10;;
40637;SDS011;26336;44.696;10.622;2023-02-05T11:02:41;70.30;;;38.20;;
40637;SDS011;26336;44.696;10.622;2023-02-05T11:05:48;69.07;;;39.90;;
40637;SDS011;26336;44.696;10.622;2023-02-05T11:08:53;78.30;;;41.17;;
40637;SDS011;26336;44.696;10.622;2023-02-05T11:11:57;92.70;;;48.37;;
40637;SDS011;26336;44.696;10.622;2023-02-05T11:15:14;82.50;;;46.70;;
40637;SDS011;26336;44.696;10.622;2023-02-05T11:18:26;82.90;;;46.53;;
40637;SDS011;26336;44.696;10.622;2023-02-05T11:21:58;83.40;;;45.43;;
40637;SDS011;26336;44.696;10.622;2023-02-05T11:25:05;87.27;;;44.47;;
40637;SDS011;26336;44.696;10.622;2023-02-05T11:28:22;71.97;;;40.13;;
40637;SDS011;26336;44.696;10.622;2023-02-05T11:34:34;60.83;;;33.67;;
40637;SDS011;26336;44.696;10.622;2023-02-05T11:37:38;50.50;;;25.60;;
40637;SDS011;26336;44.696;10.622;2023-02-05T11:40:49;47.40;;;25.10;;
40637;SDS011;26336;44.696;10.622;2023-02-05T11:43:55;36.00;;;21.50;;
40637;SDS011;26336;44.696;10.622;2023-02-05T11:47:02;33.33;;;18.17;;
40637;SDS011;26336;44.696;10.622;2023-02-05T11:50:17;31.73;;;17.30;;
40637;SDS011;26336;44.696;10.622;2023-02-05T11:53:26;29.60;;;18.40;;
40637;SDS011;26336;44.696;10.622;2023-02-05T11:56:30;26.13;;;15.93;;
40637;SDS011;26336;44.696;10.622;2023-02-05T11:59:34;33.93;;;18.20;;
40637;SDS011;26336;44.696;10.622;2023-02-05T12:02:39;28.20;;;15.73;;
40637;SDS011;26336;44.696;10.622;2023-02-05T12:05:51;26.97;;;17.50;;
40637;SDS011;26336;44.696;10.622;2023-02-05T12:08:58;27.33;;;14.77;;
40637;SDS011;26336;44.696;10.622;2023-02-05T12:15:32;24.73;;;12.43;;
40637;SDS011;26336;44.696;10.622;2023-02-05T12:18:46;18.23;;;11.73;;
40637;SDS011;26336;44.696;10.622;2023-02-05T12:29:05;17.88;;;10.15;;
40637;SDS011;26336;44.696;10.622;2023-02-05T12:32:36;17.90;;;9.53;;
40637;SDS011;26336;44.696;10.622;2023-02-05T12:39:52;20.63;;;9.97;;
40637;SDS011;26336;44.696;10.622;2023-02-05T12:43:04;16.73;;;9.93;;
40637;SDS011;26336;44.696;10.622;2023-02-05T12:49:55;22.57;;;12.10;;
40637;SDS011;26336;44.696;10.622;2023-02-05T13:10:13;14.50;;;8.97;;
40637;SDS011;26336;44.696;10.622;2023-02-05T13:13:42;19.77;;;8.23;;
40637;SDS011;26336;44.696;10.622;2023-02-05T13:17:16;12.27;;;7.77;;
40637;SDS011;26336;44.696;10.622;2023-02-05T13:20:23;6.57;;;4.10;;
40637;SDS011;26336;44.696;10.622;2023-02-05T13:24:00;8.07;;;2.30;;
40637;SDS011;26336;44.696;10.622;2023-02-05T13:27:43;8.43;;;2.53;;
40637;SDS011;26336;44.696;10.622;2023-02-05T13:31:26;9.40;;;2.47;;
40637;SDS011;26336;44.696;10.622;2023-02-05T13:34:33;8.27;;;3.00;;
40637;SDS011;26336;44.696;10.622;2023-02-05T13:37:54;6.20;;;2.40;;
40637;SDS011;26336;44.696;10.622;2023-02-05T14:01:25;5.20;;;1.93;;
40637;SDS011;26336;44.696;10.622;2023-02-05T14:04:43;6.17;;;2.10;;
40637;SDS011;26336;44.696;10.622;2023-02-05T14:07:55;2.50;;;1.67;;
40637;SDS011;26336;44.696;10.622;2023-02-05T14:11:04;4.13;;;2.00;;
40637;SDS011;26336;44.696;10.622;2023-02-05T14:14:12;9.37;;;1.97;;
40637;SDS011;26336;44.696;10.622;2023-02-05T14:20:31;3.20;;;2.13;;
40637;SDS011;26336;44.696;10.622;2023-02-05T14:33:43;7.50;;;1.90;;
40637;SDS011;26336;44.696;10.622;2023-02-05T14:40:31;5.80;;;2.40;;
40637;SDS011;26336;44.696;10.622;2023-02-05T14:43:42;5.03;;;2.00;;
40637;SDS011;26336;44.696;10.622;2023-02-05T14:47:05;6.70;;;1.80;;
40637;SDS011;26336;44.696;10.622;2023-02-05T14:50:25;7.57;;;2.22;;
40637;SDS011;26336;44.696;10.622;2023-02-05T14:53:31;4.60;;;2.70;;
40637;SDS011;26336;44.696;10.622;2023-02-05T14:56:47;6.97;;;2.53;;
40637;SDS011;26336;44.696;10.622;2023-02-05T15:00:02;5.40;;;2.60;;
40637;SDS011;26336;44.696;10.622;2023-02-05T15:06:23;7.88;;;2.47;;
40637;SDS011;26336;44.696;10.622;2023-02-05T15:12:55;6.20;;;2.27;;
40637;SDS011;26336;44.696;10.622;2023-02-05T15:19:14;3.10;;;2.20;;
40637;SDS011;26336;44.696;10.622;2023-02-05T15:22:24;5.63;;;2.30;;
40637;SDS011;26336;44.696;10.622;2023-02-05T15:25:31;5.37;;;2.50;;
40637;SDS011;26336;44.696;10.622;2023-02-05T15:28:53;5.37;;;2.40;;
40637;SDS011;26336;44.696;10.622;2023-02-05T15:32:17;6.03;;;2.30;;
40637;SDS011;26336;44.696;10.622;2023-02-05T15:35:26;5.00;;;2.37;;
40637;SDS011;26336;44.696;10.622;2023-02-05T15:38:51;8.27;;;2.30;;
40637;SDS011;26336;44.696;10.622;2023-02-05T15:42:14;7.87;;;2.60;;
40637;SDS011;26336;44.696;10.622;2023-02-05T15:48:30;8.43;;;2.20;;
40637;SDS011;26336;44.696;10.622;2023-02-05T15:51:36;7.80;;;2.97;;
40637;SDS011;26336;44.696;10.622;2023-02-05T15:54:41;6.13;;;2.60;;
40637;SDS011;26336;44.696;10.622;2023-02-05T15:57:45;7.47;;;2.43;;
40637;SDS011;26336;44.696;10.622;2023-02-05T16:00:50;5.63;;;2.77;;
40637;SDS011;26336;44.696;10.622;2023-02-05T16:03:55;6.70;;;2.17;;
40637;SDS011;26336;44.696;10.622;2023-02-05T16:07:00;5.17;;;2.10;;
40637;SDS011;26336;44.696;10.622;2023-02-05T16:10:16;4.47;;;2.40;;
40637;SDS011;26336;44.696;10.622;2023-02-05T16:13:37;8.43;;;2.90;;
40637;SDS011;26336;44.696;10.622;2023-02-05T16:17:25;6.60;;;2.20;;
40637;SDS011;26336;44.696;10.622;2023-02-05T16:20:57;6.67;;;2.67;;
40637;SDS011;26336;44.696;10.622;2023-02-05T16:23:59;8.63;;;3.20;;
40637;SDS011;26336;44.696;10.622;2023-02-05T16:27:43;6.80;;;2.67;;
40637;SDS011;26336;44.696;10.622;2023-02-05T16:30:52;5.87;;;2.93;;
40637;SDS011;26336;44.696;10.622;2023-02-05T16:37:04;13.17;;;3.20;;
40637;SDS011;26336;44.696;10.622;2023-02-05T16:40:26;8.18;;;2.42;;
40637;SDS011;26336;44.696;10.622;2023-02-05T16:43:35;7.17;;;2.93;;
40637;SDS011;26336;44.696;10.622;2023-02-05T16:46:41;8.97;;;2.93;;
40637;SDS011;26336;44.696;10.622;2023-02-05T16:49:46;6.27;;;3.07;;
40637;SDS011;26336;44.696;10.622;2023-02-05T16:52:54;8.13;;;2.83;;
40637;SDS011;26336;44.696;10.622;2023-02-05T16:56:16;5.93;;;3.53;;
40637;SDS011;26336;44.696;10.622;2023-02-05T16:59:49;9.97;;;3.57;;
40637;SDS011;26336;44.696;10.622;2023-02-05T17:03:24;6.00;;;3.47;;
40637;SDS011;26336;44.696;10.622;2023-02-05T17:06:34;8.23;;;4.57;;
40637;SDS011;26336;44.696;10.622;2023-02-05T17:09:39;9.00;;;2.90;;
40637;SDS011;26336;44.696;10.622;2023-02-05T17:12:49;7.50;;;3.00;;
40637;SDS011;26336;44.696;10.622;2023-02-05T17:19:27;9.27;;;3.33;;
40637;SDS011;26336;44.696;10.622;2023-02-05T17:22:33;8.77;;;3.47;;
40637;SDS011;26336;44.696;10.622;2023-02-05T17:25:38;8.07;;;3.30;;
40637;SDS011;26336;44.696;10.622;2023-02-05T17:28:53;10.03;;;3.70;;
40637;SDS011;26336;44.696;10.622;2023-02-05T17:31:59;8.93;;;3.50;;
40637;SDS011;26336;44.696;10.622;2023-02-05T17:35:10;12.10;;;4.13;;
40637;SDS011;26336;44.696;10.622;2023-02-05T17:38:21;12.73;;;3.50;;
40637;SDS011;26336;44.696;10.622;2023-02-05T17:41:29;8.03;;;4.10;;
40637;SDS011;26336;44.696;10.622;2023-02-05T17:44:56;11.73;;;7.07;;
40637;SDS011;26336;44.696;10.622;2023-02-05T17:48:00;23.43;;;10.90;;
40637;SDS011;26336;44.696;10.622;2023-02-05T17:51:04;16.77;;;12.43;;
40637;SDS011;26336;44.696;10.622;2023-02-05T17:54:16;21.63;;;12.40;;
40637;SDS011;26336;44.696;10.622;2023-02-05T17:57:22;19.67;;;11.30;;
40637;SDS011;26336;44.696;10.622;2023-02-05T18:00:28;15.43;;;10.53;;
40637;SDS011;26336;44.696;10.622;2023-02-05T18:03:34;20.83;;;9.07;;
40637;SDS011;26336;44.696;10.622;2023-02-05T18:06:38;19.30;;;10.10;;
40637;SDS011;26336;44.696;10.622;2023-02-05T18:09:44;22.00;;;7.97;;
40637;SDS011;26336;44.696;10.622;2023-02-05T18:12:49;12.73;;;7.40;;
40637;SDS011;26336;44.696;10.622;2023-02-05T18:15:54;14.27;;;5.10;;
40637;SDS011;26336;44.696;10.622;2023-02-05T18:19:03;13.53;;;4.93;;
40637;SDS011;26336;44.696;10.622;2023-02-05T18:22:08;7.07;;;4.03;;
40637;SDS011;26336;44.696;10.622;2023-02-05T18:25:11;7.67;;;4.10;;
40637;SDS011;26336;44.696;10.622;2023-02-05T18:28:15;9.20;;;3.87;;
40637;SDS011;26336;44.696;10.622;2023-02-05T18:31:20;13.77;;;4.13;;
40637;SDS011;26336;44.696;10.622;2023-02-05T18:34:24;12.27;;;4.37;;
40637;SDS011;26336;44.696;10.622;2023-02-05T18:37:28;15.23;;;4.73;;
40637;SDS011;26336;44.696;10.622;2023-02-05T18:40:33;11.30;;;4.07;;
40637;SDS011;26336;44.696;10.622;2023-02-05T18:43:37;13.23;;;4.70;;
40637;SDS011;26336;44.696;10.622;2023-02-05T18:46:41;11.33;;;5.03;;
40637;SDS011;26336;44.696;10.622;2023-02-05T18:49:45;11.13;;;4.70;;
40637;SDS011;26336;44.696;10.622;2023-02-05T18:52:49;10.37;;;5.07;;
40637;SDS011;26336;44.696;10.622;2023-02-05T18:55:59;11.03;;;5.30;;
40637;SDS011;26336;44.696;10.622;2023-02-05T18:59:06;8.70;;;5.18;;
40637;SDS011;26336;44.696;10.622;2023-02-05T19:02:12;12.70;;;5.63;;
40637;SDS011;26336;44.696;10.622;2023-02-05T19:05:16;12.40;;;5.53;;
40637;SDS011;26336;44.696;10.622;2023-02-05T19:08:21;10.00;;;5.10;;
40637;SDS011;26336;44.696;10.622;2023-02-05T19:11:26;11.20;;;5.30;;
40637;SDS011;26336;44.696;10.622;2023-02-05T19:14:31;13.33;;;5.40;;
40637;SDS011;26336;44.696;10.622;2023-02-05T19:17:35;12.20;;;5.73;;
40637;SDS011;26336;44.696;10.622;2023-02-05T19:20:39;11.23;;;4.80;;
40637;SDS011;26336;44.696;10.622;2023-02-05T19:23:43;9.07;;;5.40;;
40637;SDS011;26336;44.696;10.622;2023-02-05T19:26:52;11.03;;;5.37;;
40637;SDS011;26336;44.696;10.622;2023-02-05T19:29:58;12.67;;;5.17;;
40637;SDS011;26336;44.696;10.622;2023-02-05T19:33:02;11.80;;;5.70;;
40637;SDS011;26336;44.696;10.622;2023-02-05T19:36:07;13.50;;;6.20;;
40637;SDS011;26336;44.696;10.622;2023-02-05T19:39:12;12.93;;;5.43;;
40637;SDS011;26336;44.696;10.622;2023-02-05T19:42:17;13.63;;;6.33;;
40637;SDS011;26336;44.696;10.622;2023-02-05T19:45:21;12.33;;;6.17;;
40637;SDS011;26336;44.696;10.622;2023-02-05T19:48:27;15.23;;;5.70;;
40637;SDS011;26336;44.696;10.622;2023-02-05T19:51:31;10.67;;;6.10;;
40637;SDS011;26336;44.696;10.622;2023-02-05T19:54:36;12.47;;;6.23;;
40637;SDS011;26336;44.696;10.622;2023-02-05T19:57:41;12.17;;;6.43;;
40637;SDS011;26336;44.696;10.622;2023-02-05T20:00:46;12.37;;;6.13;;
40637;SDS011;26336;44.696;10.622;2023-02-05T20:03:51;11.97;;;6.10;;
40637;SDS011;26336;44.696;10.622;2023-02-05T20:06:57;12.57;;;5.40;;
40637;SDS011;26336;44.696;10.622;2023-02-05T20:10:02;12.37;;;6.23;;
40637;SDS011;26336;44.696;10.622;2023-02-05T20:13:09;13.33;;;6.20;;
40637;SDS011;26336;44.696;10.622;2023-02-05T20:16:15;19.30;;;6.20;;
40637;SDS011;26336;44.696;10.622;2023-02-05T20:19:21;12.03;;;6.13;;
40637;SDS011;26336;44.696;10.622;2023-02-05T20:22:25;9.53;;;5.70;;
40637;SDS011;26336;44.696;10.622;2023-02-05T20:25:30;12.07;;;6.33;;
40637;SDS011;26336;44.696;10.622;2023-02-05T20:28:35;14.17;;;5.67;;
40637;SDS011;26336;44.696;10.622;2023-02-05T20:32:00;11.10;;;5.80;;
40637;SDS011;26336;44.696;10.622;2023-02-05T20:35:05;14.43;;;6.33;;